Time;durP1;ratioP1;P1;durP2;ratioP2;P2;SDS_P1;SDS_P2;PMS_P1;PMS_P2;Temp;Humidity;BMP_temperature;BMP_pressure;BME280_temperature;BME280_humidity;BME280_pressure;Samples;Min_cycle;Max_cycle;Signal;HPM_P1;HPM_P2
2020/12/30 00:00:21;;;;;;;;;;;12.30;69.50;;;;;;2598362;22;19919;-75
2020/12/30 00:01:23;;;;;;;;;;;12.30;70.30;;;;;;2597509;22;19919;-76
2020/12/30 00:02:26;;;;;;;;;;;12.30;70.80;;;;;;2598109;22;19970;-76
2020/12/30 00:03:27;;;;;;;;;;;12.30;70.50;;;;;;2598075;22;20264;-76
2020/12/30 00:04:28;;;;;;;;;;;12.10;70.60;;;;;;2597810;22;19923;-76
2020/12/30 00:05:31;;;;;;;;;;;12.20;71.40;;;;;;2598328;22;19923;-76
2020/12/30 00:06:32;;;;;;;;;;;12.20;70.10;;;;;;2598419;22;19923;-75
2020/12/30 00:07:35;;;;;;;;;;;12.20;71.50;;;;;;2598447;22;19919;-76
2020/12/30 00:08:36;;;;;;;;;;;12.30;71.30;;;;;;2599295;22;19920;-76
2020/12/30 00:09:38;;;;;;;;;;;12.30;71.20;;;;;;2587344;23;19953;-76
2020/12/30 00:10:39;;;;;;;;;;;12.30;70.40;;;;;;2587018;22;19927;-76
2020/12/30 00:11:40;;;;;;;;;;;12.20;70.00;;;;;;2600091;22;19923;-76
2020/12/30 00:12:42;;;;;;;;;;;12.20;70.50;;;;;;2599562;22;19920;-76
2020/12/30 00:13:43;;;;;;;;;;;12.20;71.10;;;;;;2599630;22;19930;-75
2020/12/30 00:14:45;;;;;;;;;;;12.20;71.50;;;;;;2599882;22;20348;-76
2020/12/30 00:15:47;;;;;;;;;;;12.00;70.50;;;;;;2599881;22;19919;-76
2020/12/30 00:16:48;;;;;;;;;;;12.10;70.50;;;;;;2599672;22;20178;-76
2020/12/30 00:17:49;;;;;;;;;;;12.00;71.30;;;;;;2599354;22;19926;-76
2020/12/30 00:18:51;;;;;;;;;;;12.00;71.50;;;;;;2599787;22;19919;-76
2020/12/30 00:19:52;;;;;;;;;;;12.10;71.10;;;;;;2599724;22;19930;-76
2020/12/30 00:20:56;;;;;;;;;;;12.00;71.40;;;;;;2599765;22;19926;-76
2020/12/30 00:21:57;;;;;;;;;;;12.10;71.80;;;;;;2599640;22;19919;-76
2020/12/30 00:23:00;;;;;;;;;;;12.10;72.00;;;;;;2599708;22;19919;-75
2020/12/30 00:24:02;;;;;;;;;;;12.10;71.60;;;;;;2599905;22;19923;-76
2020/12/30 00:25:03;;;;;;;;;;;12.10;70.60;;;;;;2599302;22;19919;-76
2020/12/30 00:26:05;;;;;;;;;;;12.10;71.40;;;;;;2599053;22;19931;-76
2020/12/30 00:27:06;;;;;;;;;;;12.10;71.30;;;;;;2599037;22;19934;-76
2020/12/30 00:28:08;;;;;;;;;;;12.10;72.00;;;;;;2599232;22;19919;-75
2020/12/30 00:29:09;;;;;;;;;;;12.20;71.80;;;;;;2598932;22;19930;-75
2020/12/30 00:30:12;;;;;;;;;;;12.20;70.80;;;;;;2598559;22;19919;-75
2020/12/30 00:31:14;;;;;;;;;;;11.60;71.50;;;;;;2598606;22;19920;-76
2020/12/30 00:32:15;;;;;;;;;;;12.10;69.90;;;;;;2597888;22;19930;-76
2020/12/30 00:33:17;;;;;;;;;;;12.10;71.20;;;;;;2598424;22;19919;-76
2020/12/30 00:34:18;;;;;;;;;;;12.10;70.80;;;;;;2598018;22;20246;-75
2020/12/30 00:35:19;;;;;;;;;;;12.00;71.80;;;;;;2598464;22;19925;-75
2020/12/30 00:36:23;;;;;;;;;;;12.00;71.90;;;;;;2598762;22;19952;-76
2020/12/30 00:37:24;;;;;;;;;;;11.80;70.50;;;;;;2598405;22;19919;-76
2020/12/30 00:38:27;;;;;;;;;;;11.90;72.60;;;;;;2583671;23;19919;-75
2020/12/30 00:39:28;;;;;;;;;;;11.80;71.90;;;;;;2584154;22;19919;-75
2020/12/30 00:40:29;;;;;;;;;;;11.90;72.30;;;;;;2597150;22;19919;-75
2020/12/30 00:41:31;;;;;;;;;;;11.90;72.70;;;;;;2597391;22;19923;-75
2020/12/30 00:42:33;;;;;;;;;;;12.00;72.50;;;;;;2597185;22;19930;-75
2020/12/30 00:43:34;;;;;;;;;;;12.00;72.30;;;;;;2597377;22;20330;-75
2020/12/30 00:44:36;;;;;;;;;;;12.00;72.00;;;;;;2597645;22;20265;-75
2020/12/30 00:45:37;;;;;;;;;;;11.90;72.50;;;;;;2584242;23;19971;-75
2020/12/30 00:46:38;;;;;;;;;;;11.80;71.20;;;;;;2584823;22;19926;-75
2020/12/30 00:47:40;;;;;;;;;;;11.80;72.50;;;;;;2597335;22;19944;-76
2020/12/30 00:48:41;;;;;;;;;;;11.90;72.60;;;;;;2597593;22;19923;-76
2020/12/30 00:49:43;;;;;;;;;;;11.80;73.60;;;;;;2597819;22;20333;-75
2020/12/30 00:50:44;;;;;;;;;;;11.90;73.50;;;;;;2597580;22;19919;-76
2020/12/30 00:51:49;;;;;;;;;;;11.90;73.20;;;;;;2597562;22;19919;-76
2020/12/30 00:52:50;;;;;;;;;;;11.90;72.80;;;;;;2597589;22;20329;-76
2020/12/30 00:53:53;;;;;;;;;;;12.00;73.00;;;;;;2584170;23;19931;-76
2020/12/30 00:54:54;;;;;;;;;;;12.00;72.60;;;;;;2583481;22;20095;-75
2020/12/30 00:55:56;;;;;;;;;;;12.00;71.10;;;;;;2596279;22;19942;-75
2020/12/30 00:56:57;;;;;;;;;;;12.00;72.60;;;;;;2583357;23;19919;-75
2020/12/30 00:57:58;;;;;;;;;;;12.00;72.20;;;;;;2583616;22;19920;-76
2020/12/30 00:59:00;;;;;;;;;;;12.10;71.70;;;;;;2582616;23;19920;-76
2020/12/30 01:00:02;;;;;;;;;;;12.00;72.40;;;;;;2583149;22;20352;-76
2020/12/30 01:01:04;;;;;;;;;;;12.00;71.50;;;;;;2596463;22;19926;-75
2020/12/30 01:02:05;;;;;;;;;;;11.90;70.80;;;;;;2596498;22;19930;-76
2020/12/30 01:03:07;;;;;;;;;;;11.90;72.60;;;;;;2596481;22;19919;-76
2020/12/30 01:04:08;;;;;;;;;;;11.80;71.80;;;;;;2596616;22;19942;-75
2020/12/30 01:05:10;;;;;;;;;;;11.90;73.40;;;;;;2596797;22;19919;-76
2020/12/30 01:06:12;;;;;;;;;;;12.00;72.70;;;;;;2597024;22;19923;-76
2020/12/30 01:07:17;;;;;;;;;;;12.10;72.50;;;;;;2596778;22;19926;-76
2020/12/30 01:08:19;;;;;;;;;;;12.00;70.30;;;;;;2596891;22;19919;-76
2020/12/30 01:09:22;;;;;;;;;;;11.90;71.20;;;;;;2596262;22;20162;-76
2020/12/30 01:10:23;;;;;;;;;;;11.90;72.30;;;;;;2596432;22;19919;-75
2020/12/30 01:11:26;;;;;;;;;;;12.10;72.40;;;;;;2596492;22;19920;-75
2020/12/30 01:12:27;;;;;;;;;;;12.10;72.10;;;;;;2583084;23;20364;-74
2020/12/30 01:13:29;;;;;;;;;;;12.00;72.00;;;;;;2583362;22;19920;-76
2020/12/30 01:14:30;;;;;;;;;;;12.00;72.10;;;;;;2596275;22;19919;-76
2020/12/30 01:15:32;;;;;;;;;;;12.10;72.20;;;;;;2596178;22;19930;-76
2020/12/30 01:16:33;;;;;;;;;;;12.10;71.70;;;;;;2596357;22;19919;-76
2020/12/30 01:17:34;;;;;;;;;;;12.20;72.20;;;;;;2596326;22;19926;-76
2020/12/30 01:18:36;;;;;;;;;;;12.20;72.10;;;;;;2596263;22;19920;-76
2020/12/30 01:19:38;;;;;;;;;;;12.30;72.00;;;;;;2596281;22;19926;-76
2020/12/30 01:20:39;;;;;;;;;;;12.30;71.80;;;;;;2582611;23;20269;-75
2020/12/30 01:21:41;;;;;;;;;;;12.40;71.70;;;;;;2570223;23;20334;-75
2020/12/30 01:22:42;;;;;;;;;;;12.40;70.90;;;;;;2583258;23;20329;-76
2020/12/30 01:23:43;;;;;;;;;;;12.40;71.20;;;;;;2583400;22;19942;-75
2020/12/30 01:24:46;;;;;;;;;;;12.40;70.00;;;;;;2596510;22;19942;-76
2020/12/30 01:25:53;;;;;;;;;;;12.50;71.10;;;;;;2583016;23;20226;-76
2020/12/30 01:26:55;;;;;;;;;;;12.50;70.60;;;;;;2571832;23;19920;-76
2020/12/30 01:27:56;;;;;;;;;;;12.50;70.90;;;;;;2583015;23;19920;-76
2020/12/30 01:28:57;;;;;;;;;;;12.60;70.30;;;;;;2583530;22;19919;-76
2020/12/30 01:29:59;;;;;;;;;;;12.60;70.60;;;;;;2596263;22;20253;-76
2020/12/30 01:31:00;;;;;;;;;;;12.50;69.20;;;;;;2596798;22;19919;-75
2020/12/30 01:32:02;;;;;;;;;;;12.40;70.30;;;;;;2596702;22;19923;-76
2020/12/30 01:33:03;;;;;;;;;;;12.40;70.60;;;;;;2596615;22;20337;-76
2020/12/30 01:34:05;;;;;;;;;;;12.40;70.40;;;;;;2596662;22;19946;-76
2020/12/30 01:35:07;;;;;;;;;;;12.50;70.90;;;;;;2596721;22;19919;-76
2020/12/30 01:36:10;;;;;;;;;;;12.50;70.40;;;;;;2596861;22;19919;-75
2020/12/30 01:37:14;;;;;;;;;;;12.50;70.50;;;;;;2596963;22;19926;-75
2020/12/30 01:38:16;;;;;;;;;;;12.50;69.90;;;;;;2596806;22;19919;-75
2020/12/30 01:39:17;;;;;;;;;;;12.40;69.20;;;;;;2597232;22;19919;-76
2020/12/30 01:40:20;;;;;;;;;;;12.40;70.60;;;;;;2596924;22;19919;-76
2020/12/30 01:41:22;;;;;;;;;;;12.50;70.80;;;;;;2597161;22;19954;-76
2020/12/30 01:42:23;;;;;;;;;;;12.40;69.80;;;;;;2597377;22;19919;-75
2020/12/30 01:43:25;;;;;;;;;;;12.20;69.00;;;;;;2597244;22;19929;-75
2020/12/30 01:44:26;;;;;;;;;;;12.30;70.80;;;;;;2597167;22;20241;-75
2020/12/30 01:45:31;;;;;;;;;;;12.30;71.30;;;;;;2598963;22;19919;-76
2020/12/30 01:46:34;;;;;;;;;;;12.30;70.00;;;;;;2599056;22;19922;-76
2020/12/30 01:47:36;;;;;;;;;;;12.20;70.20;;;;;;2599220;22;19926;-75
2020/12/30 01:48:37;;;;;;;;;;;12.20;71.20;;;;;;2599030;22;20087;-76
2020/12/30 01:49:39;;;;;;;;;;;12.10;70.60;;;;;;2599471;22;19919;-76
2020/12/30 01:50:40;;;;;;;;;;;12.00;70.60;;;;;;2599884;22;19919;-75
2020/12/30 01:51:42;;;;;;;;;;;12.10;71.80;;;;;;2600102;22;19923;-75
2020/12/30 01:52:43;;;;;;;;;;;12.10;71.90;;;;;;2598986;22;19919;-75
2020/12/30 01:53:45;;;;;;;;;;;12.10;71.20;;;;;;2599846;22;19927;-75
2020/12/30 01:54:47;;;;;;;;;;;12.20;71.60;;;;;;2599193;22;19926;-76
2020/12/30 01:55:51;;;;;;;;;;;12.20;71.10;;;;;;2599135;22;19920;-75
2020/12/30 01:56:53;;;;;;;;;;;11.80;69.70;;;;;;2599150;22;19923;-76
2020/12/30 01:57:55;;;;;;;;;;;11.80;71.20;;;;;;2599497;22;19927;-75
2020/12/30 01:58:56;;;;;;;;;;;11.70;70.50;;;;;;2598865;22;19919;-76
2020/12/30 01:59:57;;;;;;;;;;;11.70;72.00;;;;;;2598454;22;20269;-76
2020/12/30 02:01:00;;;;;;;;;;;11.80;72.60;;;;;;2585587;23;19920;-75
2020/12/30 02:02:05;;;;;;;;;;;11.70;72.30;;;;;;2586183;22;19939;-76
2020/12/30 02:03:07;;;;;;;;;;;11.70;72.40;;;;;;2599198;22;19920;-76
2020/12/30 02:04:09;;;;;;;;;;;11.70;72.10;;;;;;2599352;22;20320;-75
2020/12/30 02:05:11;;;;;;;;;;;11.70;71.80;;;;;;2599210;22;19963;-76
2020/12/30 02:06:13;;;;;;;;;;;11.40;72.60;;;;;;2598343;22;19919;-75
2020/12/30 02:07:15;;;;;;;;;;;11.40;73.50;;;;;;2597543;22;19919;-75
2020/12/30 02:08:16;;;;;;;;;;;11.40;73.20;;;;;;2597495;22;20234;-75
2020/12/30 02:09:18;;;;;;;;;;;11.30;73.30;;;;;;2597500;22;19920;-75
2020/12/30 02:10:21;;;;;;;;;;;11.30;74.00;;;;;;2596900;22;19919;-76
2020/12/30 02:11:25;;;;;;;;;;;11.50;74.80;;;;;;2596688;22;19990;-76
2020/12/30 02:12:27;;;;;;;;;;;11.50;73.70;;;;;;2596249;22;19942;-76
2020/12/30 02:13:28;;;;;;;;;;;11.60;72.40;;;;;;2582935;23;19919;-76
2020/12/30 02:14:30;;;;;;;;;;;11.50;72.20;;;;;;2582971;22;19919;-76
2020/12/30 02:15:33;;;;;;;;;;;11.40;73.20;;;;;;2596280;22;19924;-76
2020/12/30 02:16:46;;;;;;;;;;;11.50;74.50;;;;;;2596019;22;19920;-76
2020/12/30 02:17:47;;;;;;;;;;;11.50;72.10;;;;;;2596044;22;19923;-76
2020/12/30 02:18:48;;;;;;;;;;;11.50;73.80;;;;;;2596165;22;19942;-76
2020/12/30 02:19:50;;;;;;;;;;;11.50;72.90;;;;;;2596242;22;19919;-75
2020/12/30 02:20:52;;;;;;;;;;;11.40;72.90;;;;;;2596183;22;19919;-75
2020/12/30 02:21:55;;;;;;;;;;;11.50;73.90;;;;;;2583053;23;19927;-76
2020/12/30 02:23:00;;;;;;;;;;;11.50;73.60;;;;;;2583415;22;19927;-75
2020/12/30 02:24:02;;;;;;;;;;;11.60;73.40;;;;;;2596321;22;19928;-76
2020/12/30 02:25:04;;;;;;;;;;;11.60;72.60;;;;;;2595859;22;19938;-75
2020/12/30 02:26:06;;;;;;;;;;;11.70;73.50;;;;;;2595959;22;20237;-75
2020/12/30 02:27:07;;;;;;;;;;;11.80;72.80;;;;;;2596052;22;20222;-75
2020/12/30 02:28:10;;;;;;;;;;;11.90;73.10;;;;;;2595931;22;19923;-76
2020/12/30 02:29:12;;;;;;;;;;;11.90;72.40;;;;;;2596377;22;19930;-75
2020/12/30 02:30:13;;;;;;;;;;;11.90;69.90;;;;;;2596062;22;19987;-76
2020/12/30 02:31:15;;;;;;;;;;;11.80;70.40;;;;;;2595998;22;19923;-75
2020/12/30 02:32:16;;;;;;;;;;;11.80;71.40;;;;;;2581255;23;20194;-76
2020/12/30 02:33:19;;;;;;;;;;;11.80;72.50;;;;;;2582791;22;19920;-76
2020/12/30 02:34:21;;;;;;;;;;;11.80;71.10;;;;;;2595087;22;20087;-76
2020/12/30 02:35:23;;;;;;;;;;;11.90;71.70;;;;;;2596163;22;19926;-75
2020/12/30 02:36:30;;;;;;;;;;;11.80;71.40;;;;;;2596451;22;20230;-75
2020/12/30 02:37:31;;;;;;;;;;;11.80;71.60;;;;;;2596239;22;19919;-75
2020/12/30 02:38:32;;;;;;;;;;;11.80;68.80;;;;;;2596076;22;19926;-76
2020/12/30 02:39:34;;;;;;;;;;;11.70;71.90;;;;;;2596137;22;20367;-76
2020/12/30 02:40:36;;;;;;;;;;;11.80;72.00;;;;;;2595967;22;20337;-75
2020/12/30 02:41:37;;;;;;;;;;;11.80;70.50;;;;;;2596052;22;19927;-76
2020/12/30 02:42:42;;;;;;;;;;;11.90;72.20;;;;;;2595727;22;20245;-76
2020/12/30 02:43:43;;;;;;;;;;;11.80;71.00;;;;;;2595991;22;19942;-75
2020/12/30 02:44:44;;;;;;;;;;;11.70;69.40;;;;;;2595985;22;19919;-76
2020/12/30 02:45:46;;;;;;;;;;;11.60;70.60;;;;;;2596048;22;19919;-76
2020/12/30 02:46:47;;;;;;;;;;;11.50;69.60;;;;;;2595923;22;20332;-76
2020/12/30 02:47:49;;;;;;;;;;;11.40;71.10;;;;;;2582726;23;19970;-76
2020/12/30 02:48:50;;;;;;;;;;;11.30;68.50;;;;;;2582507;22;19919;-76
2020/12/30 02:49:51;;;;;;;;;;;11.20;70.40;;;;;;2595852;22;19919;-74
2020/12/30 02:50:53;;;;;;;;;;;11.20;72.00;;;;;;2595619;22;19919;-76
2020/12/30 02:51:54;;;;;;;;;;;11.20;72.80;;;;;;2596063;22;19919;-75
2020/12/30 02:52:56;;;;;;;;;;;11.20;72.30;;;;;;2582466;23;20388;-76
2020/12/30 02:53:57;;;;;;;;;;;11.20;71.10;;;;;;2582832;22;19924;-75
2020/12/30 02:54:58;;;;;;;;;;;11.10;70.50;;;;;;2595834;22;19919;-76
2020/12/30 02:56:01;;;;;;;;;;;11.00;71.30;;;;;;2596110;22;19920;-76
2020/12/30 02:57:02;;;;;;;;;;;11.00;70.20;;;;;;2596399;22;19930;-75
2020/12/30 02:58:03;;;;;;;;;;;11.00;72.30;;;;;;2595518;22;19919;-75
2020/12/30 02:59:05;;;;;;;;;;;11.10;73.70;;;;;;2595971;22;19926;-75
2020/12/30 03:00:06;;;;;;;;;;;11.20;74.20;;;;;;2596284;22;19919;-76
2020/12/30 03:01:09;;;;;;;;;;;11.20;73.90;;;;;;2596084;22;20294;-75
2020/12/30 03:02:13;;;;;;;;;;;11.30;73.20;;;;;;2596383;22;19919;-76
2020/12/30 03:03:14;;;;;;;;;;;11.40;74.20;;;;;;2596226;22;20249;-75
2020/12/30 03:04:15;;;;;;;;;;;11.50;73.10;;;;;;2595241;22;19920;-75
2020/12/30 03:05:18;;;;;;;;;;;11.50;72.70;;;;;;2596232;22;19919;-76
2020/12/30 03:06:22;;;;;;;;;;;11.50;73.20;;;;;;2596284;22;19919;-76
2020/12/30 03:07:27;;;;;;;;;;;11.50;71.80;;;;;;2596215;22;19926;-76
2020/12/30 03:08:28;;;;;;;;;;;11.60;72.00;;;;;;2596317;22;19969;-76
2020/12/30 03:09:30;;;;;;;;;;;11.70;73.20;;;;;;2596640;22;19943;-76
2020/12/30 03:10:31;;;;;;;;;;;11.80;72.90;;;;;;2596187;22;19919;-76
2020/12/30 03:11:33;;;;;;;;;;;11.80;72.50;;;;;;2596805;22;19919;-75
2020/12/30 03:12:35;;;;;;;;;;;11.90;71.70;;;;;;2596310;22;19946;-75
2020/12/30 03:13:36;;;;;;;;;;;11.90;71.00;;;;;;2596164;22;19920;-76
2020/12/30 03:14:37;;;;;;;;;;;11.90;71.40;;;;;;2596112;22;20349;-75
2020/12/30 03:15:39;;;;;;;;;;;11.90;71.20;;;;;;2596023;22;19919;-76
2020/12/30 03:16:40;;;;;;;;;;;11.90;71.90;;;;;;2596349;22;19920;-76
2020/12/30 03:17:42;;;;;;;;;;;11.90;71.20;;;;;;2596564;22;19924;-76
2020/12/30 03:18:43;;;;;;;;;;;11.90;71.80;;;;;;2596310;22;19928;-76
2020/12/30 03:19:44;;;;;;;;;;;12.00;71.70;;;;;;2596216;22;19919;-76
2020/12/30 03:20:46;;;;;;;;;;;12.10;70.70;;;;;;2582875;23;20376;-77
2020/12/30 03:21:47;;;;;;;;;;;12.10;71.00;;;;;;2583819;22;19919;-76
2020/12/30 03:22:48;;;;;;;;;;;12.00;70.40;;;;;;2596540;22;19919;-75
2020/12/30 03:23:51;;;;;;;;;;;12.00;70.90;;;;;;2596609;22;19926;-75
2020/12/30 03:24:53;;;;;;;;;;;12.00;70.30;;;;;;2597666;22;19919;-76
2020/12/30 03:25:54;;;;;;;;;;;12.00;69.70;;;;;;2598465;22;19926;-75
2020/12/30 03:26:57;;;;;;;;;;;12.00;71.10;;;;;;2598964;22;20173;-76
2020/12/30 03:27:58;;;;;;;;;;;12.00;70.20;;;;;;2585493;23;19930;-76
2020/12/30 03:29:03;;;;;;;;;;;12.00;70.90;;;;;;2585011;22;20280;-76
2020/12/30 03:30:05;;;;;;;;;;;12.10;70.90;;;;;;2598492;22;19926;-76
2020/12/30 03:31:06;;;;;;;;;;;12.10;69.80;;;;;;2599054;22;19926;-76
2020/12/30 03:32:08;;;;;;;;;;;12.10;70.30;;;;;;2598703;22;19986;-76
2020/12/30 03:33:10;;;;;;;;;;;12.00;70.50;;;;;;2597481;22;19919;-76
2020/12/30 03:34:11;;;;;;;;;;;12.00;69.30;;;;;;2596868;22;19919;-75
2020/12/30 03:35:13;;;;;;;;;;;12.00;71.00;;;;;;2598234;22;19919;-76
2020/12/30 03:36:14;;;;;;;;;;;12.00;70.90;;;;;;2595902;22;20332;-75
2020/12/30 03:37:16;;;;;;;;;;;12.00;70.60;;;;;;2596247;22;19920;-75
2020/12/30 03:38:17;;;;;;;;;;;12.00;71.50;;;;;;2582450;23;20276;-76
2020/12/30 03:39:18;;;;;;;;;;;12.10;71.30;;;;;;2570136;23;19919;-76
2020/12/30 03:40:20;;;;;;;;;;;12.20;70.80;;;;;;2582658;22;19920;-76
2020/12/30 03:41:21;;;;;;;;;;;12.10;68.80;;;;;;2595881;22;19923;-76
2020/12/30 03:42:24;;;;;;;;;;;12.10;70.10;;;;;;2595981;22;20332;-76
2020/12/30 03:43:25;;;;;;;;;;;12.30;70.60;;;;;;2595604;22;20268;-76
2020/12/30 03:44:26;;;;;;;;;;;12.40;70.10;;;;;;2595658;22;19946;-76
2020/12/30 03:45:28;;;;;;;;;;;12.40;69.40;;;;;;2596332;22;19920;-76
2020/12/30 03:46:29;;;;;;;;;;;12.40;69.70;;;;;;2595875;22;20375;-76
2020/12/30 03:47:30;;;;;;;;;;;12.40;68.80;;;;;;2582414;23;19919;-75
2020/12/30 03:48:32;;;;;;;;;;;12.40;69.60;;;;;;2582599;22;20257;-76
2020/12/30 03:49:33;;;;;;;;;;;12.40;69.10;;;;;;2596127;22;19919;-76
2020/12/30 03:50:36;;;;;;;;;;;12.40;69.10;;;;;;2595933;22;19926;-75
2020/12/30 03:51:38;;;;;;;;;;;12.40;69.90;;;;;;2595913;22;20356;-76
2020/12/30 03:52:39;;;;;;;;;;;12.30;69.60;;;;;;2595913;22;19931;-75
2020/12/30 03:53:40;;;;;;;;;;;12.50;69.70;;;;;;2595689;22;19923;-76
2020/12/30 03:54:43;;;;;;;;;;;12.60;69.20;;;;;;2595759;22;19927;-75
2020/12/30 03:55:44;;;;;;;;;;;12.60;69.30;;;;;;2595396;22;19926;-75
2020/12/30 03:56:46;;;;;;;;;;;12.60;68.80;;;;;;2596036;22;19938;-75
2020/12/30 03:57:48;;;;;;;;;;;12.60;69.10;;;;;;2595873;22;19954;-76
2020/12/30 03:58:50;;;;;;;;;;;12.60;67.90;;;;;;2596189;22;19920;-75
2020/12/30 03:59:59;;;;;;;;;;;12.60;68.40;;;;;;2595705;22;19926;-75
2020/12/30 04:01:01;;;;;;;;;;;12.70;68.70;;;;;;2595958;22;20246;-75
2020/12/30 04:02:02;;;;;;;;;;;12.70;69.20;;;;;;2582466;23;19923;-76
2020/12/30 04:03:04;;;;;;;;;;;12.70;68.60;;;;;;2582993;22;20332;-76
2020/12/30 04:04:05;;;;;;;;;;;12.80;68.90;;;;;;2596391;22;19919;-75
2020/12/30 04:05:06;;;;;;;;;;;12.80;68.50;;;;;;2596444;22;20356;-75
2020/12/30 04:06:08;;;;;;;;;;;12.90;68.00;;;;;;2596855;22;19920;-75
2020/12/30 04:07:09;;;;;;;;;;;12.90;68.20;;;;;;2596924;22;19919;-76
2020/12/30 04:08:11;;;;;;;;;;;12.90;68.40;;;;;;2596871;22;20277;-75
2020/12/30 04:09:13;;;;;;;;;;;12.90;66.40;;;;;;2597005;22;19926;-76
2020/12/30 04:10:14;;;;;;;;;;;12.80;67.30;;;;;;2597620;22;19919;-75
2020/12/30 04:11:16;;;;;;;;;;;12.80;67.90;;;;;;2597987;22;20345;-76
2020/12/30 04:12:17;;;;;;;;;;;12.80;68.20;;;;;;2584302;23;19927;-75
2020/12/30 04:13:20;;;;;;;;;;;12.80;68.30;;;;;;2584366;22;19927;-76
2020/12/30 04:14:21;;;;;;;;;;;12.80;67.50;;;;;;2599060;22;20345;-75
2020/12/30 04:15:22;;;;;;;;;;;12.80;68.10;;;;;;2600183;22;19926;-75
2020/12/30 04:16:24;;;;;;;;;;;12.80;68.60;;;;;;2601038;22;19930;-75
2020/12/30 04:17:26;;;;;;;;;;;12.80;67.80;;;;;;2601132;22;19919;-76
2020/12/30 04:18:27;;;;;;;;;;;12.90;67.80;;;;;;2600994;22;19920;-76
2020/12/30 04:19:28;;;;;;;;;;;12.90;68.20;;;;;;2601515;22;19920;-76
2020/12/30 04:20:30;;;;;;;;;;;12.90;67.60;;;;;;2601173;22;19924;-76
2020/12/30 04:21:31;;;;;;;;;;;12.90;67.90;;;;;;2601361;22;20135;-76
2020/12/30 04:22:33;;;;;;;;;;;12.80;67.40;;;;;;2601907;22;19919;-76
2020/12/30 04:23:34;;;;;;;;;;;12.80;68.20;;;;;;2601970;22;19919;-76
2020/12/30 04:24:36;;;;;;;;;;;12.80;67.50;;;;;;2601598;22;19919;-76
2020/12/30 04:25:37;;;;;;;;;;;12.80;68.20;;;;;;2601891;22;20002;-75
2020/12/30 04:26:39;;;;;;;;;;;12.90;68.40;;;;;;2600127;22;19926;-75
2020/12/30 04:27:40;;;;;;;;;;;12.90;67.90;;;;;;2600299;22;20257;-76
2020/12/30 04:28:42;;;;;;;;;;;12.90;67.90;;;;;;2600172;22;20384;-75
2020/12/30 04:29:44;;;;;;;;;;;13.00;67.30;;;;;;2600493;22;19930;-75
2020/12/30 04:30:45;;;;;;;;;;;12.90;66.90;;;;;;2597983;22;19919;-75
2020/12/30 04:31:46;;;;;;;;;;;12.70;64.90;;;;;;2597677;22;19919;-75
2020/12/30 04:32:48;;;;;;;;;;;12.60;65.10;;;;;;2597414;22;19930;-75
2020/12/30 04:33:50;;;;;;;;;;;12.50;68.00;;;;;;2597137;22;20369;-75
2020/12/30 04:34:51;;;;;;;;;;;12.40;67.30;;;;;;2597337;22;19919;-75
2020/12/30 04:35:53;;;;;;;;;;;12.50;69.00;;;;;;2596938;22;19977;-75
2020/12/30 04:36:54;;;;;;;;;;;12.60;69.10;;;;;;2597278;22;19923;-75
2020/12/30 04:37:55;;;;;;;;;;;12.60;68.20;;;;;;2597145;22;20235;-75
2020/12/30 04:38:57;;;;;;;;;;;12.60;68.20;;;;;;2597919;22;20067;-75
2020/12/30 04:39:58;;;;;;;;;;;12.60;68.50;;;;;;2597579;22;19923;-75
2020/12/30 04:41:00;;;;;;;;;;;12.50;66.10;;;;;;2584488;23;19919;-75
2020/12/30 04:42:03;;;;;;;;;;;12.40;68.00;;;;;;2585020;22;19923;-76
2020/12/30 04:43:05;;;;;;;;;;;12.40;68.60;;;;;;2598305;22;20340;-75
2020/12/30 04:44:07;;;;;;;;;;;12.50;69.00;;;;;;2598635;22;19920;-76
2020/12/30 04:45:10;;;;;;;;;;;12.40;68.10;;;;;;2597684;22;19919;-75
2020/12/30 04:46:12;;;;;;;;;;;12.40;68.60;;;;;;2597867;22;19942;-75
2020/12/30 04:47:13;;;;;;;;;;;12.50;68.50;;;;;;2597628;22;19919;-75
2020/12/30 04:48:15;;;;;;;;;;;12.50;68.20;;;;;;2597364;22;19974;-75
2020/12/30 04:49:16;;;;;;;;;;;12.60;68.60;;;;;;2597974;22;19926;-75
2020/12/30 04:50:18;;;;;;;;;;;12.50;67.10;;;;;;2597508;22;19919;-76
2020/12/30 04:51:19;;;;;;;;;;;12.50;67.60;;;;;;2597207;22;19919;-75
2020/12/30 04:52:21;;;;;;;;;;;12.50;67.70;;;;;;2597350;22;19919;-75
2020/12/30 04:53:23;;;;;;;;;;;12.50;68.70;;;;;;2597377;22;19927;-75
2020/12/30 04:54:24;;;;;;;;;;;12.50;68.50;;;;;;2597083;22;19919;-75
2020/12/30 04:55:31;;;;;;;;;;;12.40;68.00;;;;;;2597302;22;19919;-75
2020/12/30 04:56:49;;;;;;;;;;;12.40;68.90;;;;;;2596488;22;20256;-76
2020/12/30 04:57:59;;;;;;;;;;;12.40;69.50;;;;;;2596362;22;19923;-76
2020/12/30 04:59:01;;;;;;;;;;;12.40;66.80;;;;;;2596428;22;19962;-76
2020/12/30 05:00:05;;;;;;;;;;;12.40;68.90;;;;;;2596482;22;19919;-75
2020/12/30 05:01:09;;;;;;;;;;;12.40;68.60;;;;;;2596519;22;19941;-75
2020/12/30 05:02:11;;;;;;;;;;;12.50;68.80;;;;;;2596433;22;19942;-76
2020/12/30 05:03:13;;;;;;;;;;;12.50;68.80;;;;;;2596516;22;19919;-76
2020/12/30 05:04:16;;;;;;;;;;;12.60;68.70;;;;;;2596388;22;19920;-75
2020/12/30 05:05:18;;;;;;;;;;;12.50;67.00;;;;;;2596593;22;20066;-76
2020/12/30 05:06:21;;;;;;;;;;;12.60;68.50;;;;;;2596380;22;19927;-76
2020/12/30 05:07:25;;;;;;;;;;;12.20;64.80;;;;;;2596189;22;20347;-76
2020/12/30 05:08:27;;;;;;;;;;;12.20;68.50;;;;;;2596089;22;19928;-75
2020/12/30 05:09:30;;;;;;;;;;;12.20;69.00;;;;;;2596422;22;20292;-76
2020/12/30 05:10:31;;;;;;;;;;;12.30;69.70;;;;;;2596084;22;19923;-76
2020/12/30 05:11:32;;;;;;;;;;;12.50;69.60;;;;;;2596191;22;19946;-75
2020/12/30 05:12:34;;;;;;;;;;;12.50;69.20;;;;;;2596309;22;19919;-75
2020/12/30 05:13:36;;;;;;;;;;;12.50;67.10;;;;;;2596177;22;19919;-76
2020/12/30 05:14:38;;;;;;;;;;;12.40;68.40;;;;;;2596164;22;19919;-76
2020/12/30 05:15:40;;;;;;;;;;;12.50;69.10;;;;;;2596351;22;19924;-76
2020/12/30 05:16:41;;;;;;;;;;;12.50;65.30;;;;;;2595886;22;19919;-76
2020/12/30 05:17:43;;;;;;;;;;;12.40;67.20;;;;;;2583022;23;19920;-75
2020/12/30 05:18:44;;;;;;;;;;;12.40;69.00;;;;;;2583005;22;19926;-75
2020/12/30 05:19:46;;;;;;;;;;;12.40;68.50;;;;;;2596405;22;19919;-75
2020/12/30 05:20:48;;;;;;;;;;;12.40;68.30;;;;;;2596026;22;20332;-76
2020/12/30 05:21:50;;;;;;;;;;;12.50;68.90;;;;;;2596098;22;19919;-76
2020/12/30 05:22:51;;;;;;;;;;;12.60;68.80;;;;;;2596246;22;19920;-76
2020/12/30 05:23:54;;;;;;;;;;;12.60;68.20;;;;;;2582791;23;19919;-76
2020/12/30 05:25:03;;;;;;;;;;;12.60;68.20;;;;;;2571693;23;19939;-76
2020/12/30 05:26:04;;;;;;;;;;;12.60;68.20;;;;;;2584501;22;19927;-75
2020/12/30 05:27:06;;;;;;;;;;;12.70;67.40;;;;;;2596004;22;19926;-75
2020/12/30 05:28:09;;;;;;;;;;;12.70;66.50;;;;;;2595835;22;19920;-76
2020/12/30 05:29:11;;;;;;;;;;;12.70;66.90;;;;;;2596237;22;20446;-75
2020/12/30 05:30:12;;;;;;;;;;;12.60;66.70;;;;;;2596483;22;19927;-75
2020/12/30 05:31:15;;;;;;;;;;;12.50;68.00;;;;;;2596443;22;19926;-76
2020/12/30 05:32:16;;;;;;;;;;;12.50;68.20;;;;;;2583082;23;19954;-75
2020/12/30 05:33:18;;;;;;;;;;;12.60;68.30;;;;;;2583038;22;19919;-75
2020/12/30 05:34:20;;;;;;;;;;;12.60;68.10;;;;;;2596686;22;20368;-76
2020/12/30 05:35:21;;;;;;;;;;;12.70;67.40;;;;;;2596569;22;19919;-76
2020/12/30 05:36:24;;;;;;;;;;;12.70;67.90;;;;;;2596238;22;19927;-76
2020/12/30 05:37:30;;;;;;;;;;;12.70;67.20;;;;;;2596257;22;19942;-75
2020/12/30 05:38:33;;;;;;;;;;;12.70;67.60;;;;;;2595176;22;19926;-75
2020/12/30 05:39:34;;;;;;;;;;;12.70;67.00;;;;;;2596135;22;19919;-75
2020/12/30 05:40:35;;;;;;;;;;;12.70;67.40;;;;;;2596236;22;19926;-75
2020/12/30 05:41:37;;;;;;;;;;;12.70;66.70;;;;;;2596318;22;19934;-75
2020/12/30 05:42:38;;;;;;;;;;;12.50;65.90;;;;;;2596411;22;19926;-75
2020/12/30 05:43:39;;;;;;;;;;;12.60;67.80;;;;;;2596528;22;20499;-75
2020/12/30 05:44:41;;;;;;;;;;;12.60;67.10;;;;;;2596317;22;19919;-75
2020/12/30 05:45:43;;;;;;;;;;;12.60;68.40;;;;;;2596562;22;19927;-75
2020/12/30 05:46:48;;;;;;;;;;;12.60;67.60;;;;;;2595907;22;19970;-75
2020/12/30 05:47:50;;;;;;;;;;;12.70;67.20;;;;;;2595947;22;19919;-75
2020/12/30 05:48:54;;;;;;;;;;;12.60;67.10;;;;;;2596036;22;19919;-76
2020/12/30 05:49:57;;;;;;;;;;;12.60;67.60;;;;;;2596467;22;19927;-75
2020/12/30 05:50:58;;;;;;;;;;;12.50;65.20;;;;;;2596232;22;19927;-76
2020/12/30 05:52:09;;;;;;;;;;;12.50;66.40;;;;;;2596010;22;19926;-75
2020/12/30 05:53:12;;;;;;;;;;;12.40;67.30;;;;;;2582868;23;19930;-75
2020/12/30 05:54:14;;;;;;;;;;;12.50;68.40;;;;;;2583574;22;19920;-75
2020/12/30 05:55:16;;;;;;;;;;;12.50;68.20;;;;;;2595983;22;19919;-75
2020/12/30 05:56:17;;;;;;;;;;;12.50;67.60;;;;;;2596542;22;19923;-76
2020/12/30 05:57:20;;;;;;;;;;;12.50;67.30;;;;;;2596503;22;19919;-75
2020/12/30 05:58:21;;;;;;;;;;;12.50;66.80;;;;;;2596122;22;19919;-76
2020/12/30 05:59:23;;;;;;;;;;;12.50;67.00;;;;;;2596561;22;19924;-75
2020/12/30 06:00:29;;;;;;;;;;;12.40;66.70;;;;;;2596107;22;20329;-74